Time;durP1;ratioP1;P1;durP2;ratioP2;P2;SDS_P1;SDS_P2;PMS_P1;PMS_P2;Temp;Humidity;BMP_temperature;BMP_pressure;BME280_temperature;BME280_humidity;BME280_pressure;Samples;Min_cycle;Max_cycle;Signal;HPM_P1;HPM_P2
2022/03/27 00:01:32;;;;;;;0.00;0.00;;;;;;;12.99;44.85;102853.38;7357823;19;20113;-61
2022/03/27 00:03:58;;;;;;;0.00;0.00;;;;;;;12.99;44.94;102847.28;7361067;19;20018;-63
2022/03/27 00:06:23;;;;;;;0.00;0.00;;;;;;;12.95;45.33;102845.50;7359461;19;20026;-63
2022/03/27 00:08:49;;;;;;;0.00;0.00;;;;;;;12.74;45.30;102809.63;7357571;19;20014;-64
2022/03/27 00:11:24;;;;;;;0.00;0.00;;;;;;;12.91;44.45;102842.00;7354681;19;20633;-63
2022/03/27 00:13:53;;;;;;;0.00;0.00;;;;;;;12.89;45.00;102835.88;7357416;19;20013;-63
2022/03/27 00:16:20;;;;;;;0.00;0.00;;;;;;;12.65;44.93;102805.25;7354674;19;20002;-63
2022/03/27 00:18:46;;;;;;;0.00;0.00;;;;;;;12.70;45.10;102818.38;7359380;19;20653;-63
2022/03/27 00:21:11;;;;;;;0.00;0.00;;;;;;;12.77;45.24;102834.97;7360057;19;20010;-63
2022/03/27 00:23:37;;;;;;;0.00;0.00;;;;;;;12.75;44.66;102836.72;7357234;19;20010;-63
2022/03/27 00:26:03;;;;;;;0.00;0.00;;;;;;;12.70;44.86;102837.59;7354478;19;20021;-63
2022/03/27 00:28:32;;;;;;;0.00;0.00;;;;;;;12.65;44.62;102834.06;7351418;19;20632;-63
2022/03/27 00:31:02;;;;;;;0.00;0.00;;;;;;;12.65;44.52;102835.81;7359264;19;20018;-64
2022/03/27 00:33:28;;;;;;;0.00;0.00;;;;;;;12.62;44.79;102836.72;7350043;19;20026;-62
2022/03/27 00:35:55;;;;;;;0.00;0.00;;;;;;;12.58;45.17;102829.69;7358551;19;20011;-63
2022/03/27 00:38:21;;;;;;;0.00;0.00;;;;;;;12.46;45.37;102811.28;7358479;19;20010;-64
2022/03/27 00:40:46;;;;;;;0.00;0.00;;;;;;;12.54;45.72;102827.94;7359507;19;20034;-63
2022/03/27 00:43:12;;;;;;;0.00;0.00;;;;;;;12.51;45.12;102827.91;7360509;19;20014;-62
2022/03/27 00:45:37;;;;;;;0.00;0.00;;;;;;;12.42;46.44;102813.06;7352101;19;20006;-62
2022/03/27 00:48:03;;;;;;;0.00;0.00;;;;;;;12.45;46.21;102827.91;7358890;19;20633;-63
2022/03/27 00:50:30;;;;;;;0.00;0.00;;;;;;;12.41;46.50;102826.13;7359441;19;20021;-63
2022/03/27 00:52:57;;;;;;;0.00;0.00;;;;;;;12.39;46.35;102822.63;7351798;19;20014;-63
2022/03/27 00:55:22;;;;;;;0.00;0.00;;;;;;;12.37;46.42;102834.88;7357842;19;20022;-62
2022/03/27 00:57:48;;;;;;;0.00;0.00;;;;;;;12.34;46.12;102824.38;7359631;19;20002;-64
2022/03/27 01:00:20;;;;;;;0.00;0.00;;;;;;;12.31;46.19;102819.97;7352438;19;20535;-61
2022/03/27 01:02:45;;;;;;;0.00;0.00;;;;;;;12.30;45.85;102822.59;7360017;19;20014;-63
2022/03/27 01:05:14;;;;;;;0.00;0.00;;;;;;;12.14;46.25;102801.56;7357506;19;20014;-64
2022/03/27 01:07:40;;;;;;;0.00;0.00;;;;;;;12.24;47.38;102823.44;7353782;19;20565;-63
2022/03/27 01:10:07;;;;;;;0.00;0.00;;;;;;;12.24;47.17;102827.81;7357233;19;20018;-64
2022/03/27 01:12:39;;;;;;;0.00;0.00;;;;;;;12.16;46.38;102820.78;7354854;19;20733;-63
2022/03/27 01:15:24;;;;;;;0.00;0.00;;;;;;;12.11;45.40;102821.63;7355768;19;20019;-63
2022/03/27 01:17:49;;;;;;;0.00;0.00;;;;;;;11.99;47.09;102809.34;7358368;19;20015;-63
2022/03/27 01:20:48;;;;;;;0.00;0.00;;;;;;;11.92;45.61;102810.22;7357880;19;20030;-63
2022/03/27 01:23:15;;;;;;;0.00;0.00;;;;;;;11.86;47.95;102810.16;7240283;19;2004340;-64
2022/03/27 01:25:43;;;;;;;0.00;0.00;;;;;;;11.78;48.06;102797.00;7363153;19;20010;-63
2022/03/27 01:28:09;;;;;;;;;;;;;;;11.84;44.46;102806.66;7363459;19;20108;-63
2022/03/27 01:30:35;;;;;;;0.00;0.00;;;;;;;11.84;48.27;102811.91;7363561;19;20037;-63
2022/03/27 01:33:05;;;;;;;0.00;0.00;;;;;;;11.84;48.34;102814.50;7365673;19;20006;-63
2022/03/27 01:35:32;;;;;;;0.00;0.00;;;;;;;11.80;48.66;102812.69;7358469;19;20011;-63
2022/03/27 01:37:57;;;;;;;0.00;0.00;;;;;;;11.73;48.54;102792.59;7363583;19;20018;-63
2022/03/27 01:40:23;;;;;;;0.00;0.00;;;;;;;11.86;48.57;102807.53;7358466;19;20021;-64
2022/03/27 01:42:49;;;;;;;0.00;0.00;;;;;;;11.87;48.65;102811.94;7360139;19;20017;-63
2022/03/27 01:45:15;;;;;;;0.00;0.00;;;;;;;11.84;48.63;102801.41;7362265;19;20013;-63
2022/03/27 01:47:41;;;;;;;0.00;0.00;;;;;;;11.88;48.04;102804.06;7363616;19;20390;-63
2022/03/27 01:50:07;;;;;;;0.00;0.00;;;;;;;11.89;47.73;102802.31;7357243;19;20040;-64
2022/03/27 01:52:34;;;;;;;0.00;0.00;;;;;;;11.88;47.94;102808.44;7354566;19;20062;-63
2022/03/27 01:55:00;;;;;;;0.00;0.00;;;;;;;11.88;47.88;102797.97;7360139;19;20003;-63
2022/03/27 01:57:25;;;;;;;0.00;0.00;;;;;;;11.86;48.44;102800.56;7363655;19;20014;-63
2022/03/27 01:59:51;;;;;;;0.00;0.00;;;;;;;11.86;48.32;102804.91;7351574;19;20791;-64
2022/03/27 02:02:23;;;;;;;0.00;0.00;;;;;;;11.79;48.87;102787.41;7359885;19;20019;-64
2022/03/27 02:04:51;;;;;;;0.00;0.00;;;;;;;11.76;48.24;102776.91;7357990;19;20473;-63
2022/03/27 02:07:17;;;;;;;0.00;0.00;;;;;;;11.78;48.35;102788.28;7357879;19;20019;-62
2022/03/27 02:09:44;;;;;;;0.03;0.03;;;;;;;11.74;48.29;102781.25;7357747;19;20034;-63
2022/03/27 02:12:09;;;;;;;0.00;0.00;;;;;;;11.69;49.30;102782.09;7359522;19;20032;-63
2022/03/27 02:14:34;;;;;;;0.00;0.00;;;;;;;11.67;48.33;102778.63;7352644;19;20530;-63
2022/03/27 02:17:00;;;;;;;0.00;0.00;;;;;;;11.63;48.26;102778.59;7328547;19;20010;-64
2022/03/27 02:19:25;;;;;;;0.00;0.00;;;;;;;11.58;49.51;102783.78;7351896;19;20029;-63
2022/03/27 02:21:51;;;;;;;0.00;0.00;;;;;;;11.54;49.30;102776.78;7357222;19;20078;-63
2022/03/27 02:24:16;;;;;;;0.00;0.00;;;;;;;11.44;48.95;102769.72;7353985;19;20015;-62
2022/03/27 02:26:46;;;;;;;0.00;0.00;;;;;;;11.43;49.04;102776.72;7349179;19;20045;-63
2022/03/27 02:29:13;;;;;;;0.00;0.00;;;;;;;11.44;48.69;102780.19;7351944;19;20022;-63
2022/03/27 02:31:38;;;;;;;0.00;0.00;;;;;;;11.39;49.32;102776.66;7357484;19;20737;-63
2022/03/27 02:34:04;;;;;;;0.00;0.00;;;;;;;11.35;49.23;102769.66;7357400;19;20014;-63
2022/03/27 02:36:29;;;;;;;0.00;0.00;;;;;;;11.33;48.93;102777.50;7356601;19;20010;-62
2022/03/27 02:38:55;;;;;;;0.00;0.00;;;;;;;11.30;49.18;102771.38;7339990;19;20031;-63
2022/03/27 02:41:20;;;;;;;0.00;0.00;;;;;;;11.28;49.54;102771.38;7358991;19;20007;-63
2022/03/27 02:43:45;;;;;;;0.00;0.00;;;;;;;11.25;49.24;102767.84;7352500;19;20435;-59
2022/03/27 02:46:11;;;;;;;0.00;0.00;;;;;;;11.21;49.29;102760.88;7354963;19;20025;-63
2022/03/27 02:48:36;;;;;;;0.00;0.00;;;;;;;11.16;49.10;102763.44;7337268;19;20029;-63
2022/03/27 02:51:02;;;;;;;0.00;0.00;;;;;;;11.11;49.15;102759.91;7329581;19;20011;-63
2022/03/27 02:53:27;;;;;;;0.00;0.00;;;;;;;10.87;49.24;102726.59;7353379;19;20021;-63
2022/03/27 02:55:52;;;;;;;0.00;0.00;;;;;;;11.03;48.88;102765.06;7354871;19;20010;-63
2022/03/27 02:58:18;;;;;;;0.00;0.00;;;;;;;11.00;48.79;102756.31;7357848;19;20014;-64
2022/03/27 03:00:44;;;;;;;0.00;0.00;;;;;;;10.96;48.96;102746.72;7341499;19;20015;-63
2022/03/27 03:03:10;;;;;;;0.00;0.00;;;;;;;10.94;49.34;102744.06;7356867;19;20594;-63
2022/03/27 03:05:40;;;;;;;0.00;0.00;;;;;;;10.90;49.88;102748.41;7346500;19;20012;-63
2022/03/27 03:08:10;;;;;;;0.00;0.00;;;;;;;10.86;51.07;102749.25;7353052;19;20035;-63
2022/03/27 03:10:36;;;;;;;0.00;0.00;;;;;;;10.71;50.74;102722.09;7360564;19;20006;-63
2022/03/27 03:13:01;;;;;;;0.00;0.00;;;;;;;10.78;50.03;102744.78;7358728;19;20014;-62
2022/03/27 03:15:27;;;;;;;0.00;0.00;;;;;;;10.76;49.89;102743.91;7349099;19;20019;-63
2022/03/27 03:17:53;;;;;;;0.00;0.00;;;;;;;10.74;49.51;102743.00;7350569;19;20503;-62
2022/03/27 03:20:19;;;;;;;0.00;0.00;;;;;;;10.70;49.93;102741.25;7349468;19;20895;-62
2022/03/27 03:22:45;;;;;;;0.00;0.00;;;;;;;10.68;50.03;102735.13;7353325;19;20033;-62
2022/03/27 03:25:10;;;;;;;0.00;0.00;;;;;;;10.62;50.21;102726.38;7351341;19;20010;-63
2022/03/27 03:27:36;;;;;;;0.00;0.00;;;;;;;10.53;50.54;102713.22;7357051;19;20006;-63
2022/03/27 03:30:06;;;;;;;0.00;0.00;;;;;;;10.61;50.15;102737.69;7355354;19;20014;-63
2022/03/27 03:32:31;;;;;;;0.00;0.00;;;;;;;10.58;50.45;102731.53;7349124;19;20043;-62
2022/03/27 03:34:57;;;;;;;0.00;0.00;;;;;;;10.56;50.29;102723.69;7361249;19;20553;-63
2022/03/27 03:37:23;;;;;;;0.00;0.00;;;;;;;10.54;50.51;102724.53;7362874;19;20036;-63
2022/03/27 03:39:49;;;;;;;0.00;0.00;;;;;;;10.51;50.40;102725.38;7351777;19;20020;-63
2022/03/27 03:42:15;;;;;;;0.00;0.00;;;;;;;10.49;50.53;102727.13;7356384;19;20014;-63
2022/03/27 03:44:41;;;;;;;0.00;0.00;;;;;;;10.47;50.52;102723.59;7360841;19;20751;-63
2022/03/27 03:47:07;;;;;;;0.00;0.00;;;;;;;10.39;50.81;102712.19;7342954;19;20952;-63
2022/03/27 03:49:33;;;;;;;0.00;0.00;;;;;;;10.42;50.51;102717.44;7361516;19;20031;-63
2022/03/27 03:51:58;;;;;;;0.00;0.00;;;;;;;10.39;50.17;102720.03;7350987;19;20006;-63
2022/03/27 03:54:24;;;;;;;0.00;0.00;;;;;;;10.37;50.66;102722.63;7356987;19;20096;-62
2022/03/27 03:56:50;;;;;;;0.00;0.00;;;;;;;10.22;50.83;102701.53;7355886;19;20014;-63
2022/03/27 03:59:15;;;;;;;0.00;0.00;;;;;;;10.31;50.48;102717.34;7361006;19;20029;-63
2022/03/27 04:01:41;;;;;;;0.00;0.00;;;;;;;10.29;50.07;102718.16;7340201;19;20041;-63
2022/03/27 04:04:06;;;;;;;0.00;0.00;;;;;;;10.24;50.30;102714.63;7360245;19;20032;-63
2022/03/27 04:06:32;;;;;;;0.00;0.00;;;;;;;10.22;50.60;102713.72;7343872;19;21660;-64
2022/03/27 04:08:57;;;;;;;0.00;0.00;;;;;;;10.19;50.72;102721.50;7360046;19;20022;-64
2022/03/27 04:11:22;;;;;;;0.10;0.10;;;;;;;10.13;50.74;102706.66;7360232;19;20581;-63
2022/03/27 04:13:48;;;;;;;0.00;0.00;;;;;;;10.11;51.04;102713.59;7355355;19;20007;-64
2022/03/27 04:16:13;;;;;;;0.00;0.00;;;;;;;10.07;50.72;102717.91;7352318;19;20022;-63
2022/03/27 04:18:39;;;;;;;0.00;0.00;;;;;;;10.05;50.99;102711.81;7348935;19;20014;-64
2022/03/27 04:21:04;;;;;;;0.00;0.00;;;;;;;10.01;51.49;102712.63;7357137;19;20022;-63
2022/03/27 04:23:30;;;;;;;0.00;0.00;;;;;;;9.97;51.44;102708.22;7360166;19;20007;-64
2022/03/27 04:25:56;;;;;;;0.00;0.00;;;;;;;9.95;51.12;102699.50;7348130;19;20011;-63
2022/03/27 04:28:21;;;;;;;0.00;0.00;;;;;;;9.94;51.35;102705.59;7356059;19;20021;-63
2022/03/27 04:30:46;;;;;;;0.00;0.00;;;;;;;9.91;51.24;102705.53;7360420;19;20725;-61
2022/03/27 04:33:12;;;;;;;0.00;0.00;;;;;;;9.89;51.69;102704.66;7359277;19;20008;-63
2022/03/27 04:35:38;;;;;;;0.00;0.00;;;;;;;9.86;51.82;102696.78;7353238;19;20037;-62
2022/03/27 04:38:03;;;;;;;0.00;0.00;;;;;;;9.86;51.52;102704.59;7361348;19;20014;-63
2022/03/27 04:40:29;;;;;;;0.00;0.00;;;;;;;9.74;51.71;102680.97;7349203;19;20037;-63
2022/03/27 04:42:54;;;;;;;0.00;0.00;;;;;;;9.81;50.98;102696.72;7355746;19;20017;-63
2022/03/27 04:45:20;;;;;;;0.00;0.00;;;;;;;9.78;51.42;102699.31;7354214;19;20015;-62
2022/03/27 04:47:45;;;;;;;0.00;0.00;;;;;;;9.77;51.13;102696.66;7360973;19;20042;-61
2022/03/27 04:50:11;;;;;;;0.00;0.00;;;;;;;9.73;50.93;102694.84;7354681;19;20029;-63
2022/03/27 04:52:37;;;;;;;0.00;0.00;;;;;;;9.72;51.14;102695.72;7353784;19;19998;-63
2022/03/27 04:55:03;;;;;;;0.00;0.00;;;;;;;9.69;51.66;102693.09;7355015;19;20006;-62
2022/03/27 04:57:33;;;;;;;0.00;0.00;;;;;;;9.57;51.73;102673.78;7353430;19;20014;-63
2022/03/27 04:59:59;;;;;;;0.00;0.00;;;;;;;9.66;51.40;102693.03;7350634;19;20006;-63
2022/03/27 05:02:24;;;;;;;0.00;0.00;;;;;;;9.62;51.38;102693.00;7363030;19;20025;-63
2022/03/27 05:04:49;;;;;;;0.00;0.00;;;;;;;9.60;51.55;102694.72;7361867;19;20040;-62
2022/03/27 05:07:15;;;;;;;0.00;0.00;;;;;;;9.57;51.52;102699.88;7353491;19;20006;-63
2022/03/27 05:09:40;;;;;;;0.00;0.00;;;;;;;9.55;51.84;102696.38;7366495;19;20416;-63
2022/03/27 05:12:06;;;;;;;0.00;0.00;;;;;;;9.43;51.88;102680.59;7352475;19;20034;-63
2022/03/27 05:14:31;;;;;;;0.00;0.00;;;;;;;9.46;51.70;102688.44;7344797;19;20090;-63
2022/03/27 05:16:57;;;;;;;0.00;0.00;;;;;;;9.46;52.44;102695.38;7356454;19;20031;-63
2022/03/27 05:19:22;;;;;;;0.00;0.00;;;;;;;9.44;52.41;102697.97;7364509;19;20786;-63
2022/03/27 05:21:47;;;;;;;0.00;0.00;;;;;;;9.42;52.49;102689.22;7362534;19;20035;-63
2022/03/27 05:24:13;;;;;;;0.00;0.00;;;;;;;9.35;52.23;102683.06;7350060;19;20644;-63
2022/03/27 05:26:39;;;;;;;0.00;0.00;;;;;;;9.38;53.66;102692.69;7364478;19;20011;-63
2022/03/27 05:29:06;;;;;;;0.00;0.00;;;;;;;9.33;52.57;102679.56;7354679;19;20014;-63
2022/03/27 05:31:32;;;;;;;0.00;0.00;;;;;;;9.34;52.05;102688.28;7367307;19;20011;-63
2022/03/27 05:33:57;;;;;;;0.00;0.00;;;;;;;9.32;52.29;102687.34;7354553;19;20370;-62
2022/03/27 05:36:23;;;;;;;0.00;0.00;;;;;;;9.30;52.64;102687.34;7365827;19;20014;-63
2022/03/27 05:38:49;;;;;;;0.00;0.00;;;;;;;9.12;52.34;102663.59;7362430;19;20035;-63
2022/03/27 05:41:14;;;;;;;0.00;0.00;;;;;;;9.26;52.30;102687.28;7355353;19;20014;-63
2022/03/27 05:43:40;;;;;;;0.00;0.00;;;;;;;9.21;52.42;102675.91;7362001;19;20108;-63
2022/03/27 05:46:05;;;;;;;0.00;0.00;;;;;;;9.22;52.53;102680.25;7358049;19;20034;-63
2022/03/27 05:48:31;;;;;;;0.00;0.00;;;;;;;9.18;52.60;102688.91;7351149;19;20018;-63
2022/03/27 05:50:56;;;;;;;0.00;0.00;;;;;;;9.13;52.82;102683.63;7353942;19;20011;-63
2022/03/27 05:53:22;;;;;;;0.00;0.00;;;;;;;9.09;52.32;102693.13;7364066;19;20027;-63
2022/03/27 05:55:47;;;;;;;0.00;0.00;;;;;;;9.06;52.63;102690.44;7361903;19;20078;-64
2022/03/27 05:58:13;;;;;;;0.00;0.00;;;;;;;9.05;52.29;102693.03;7358508;19;20040;-62
2022/03/27 06:00:39;;;;;;;0.00;0.00;;;;;;;9.03;52.35;102694.75;7361826;19;20041;-63
2022/03/27 06:03:05;;;;;;;0.00;0.00;;;;;;;9.00;52.50;102695.56;7359488;19;20581;-63
2022/03/27 06:05:31;;;;;;;0.00;0.00;;;;;;;8.96;52.43;102696.38;7361589;19;20801;-63
2022/03/27 06:07:58;;;;;;;0.00;0.00;;;;;;;8.97;52.73;102710.28;7362791;19;20578;-63
2022/03/27 06:10:24;;;;;;;0.00;0.00;;;;;;;8.95;52.64;102705.03;7357025;19;20010;-63
2022/03/27 06:12:51;;;;;;;0.00;0.00;;;;;;;8.89;53.21;102693.66;7364991;19;20090;-61
2022/03/27 06:15:18;;;;;;;0.00;0.00;;;;;;;8.90;54.22;102698.88;7344332;19;20017;-63
2022/03/27 06:17:46;;;;;;;0.00;0.00;;;;;;;8.90;53.56;102709.31;7363366;19;20617;-63
2022/03/27 06:20:16;;;;;;;0.00;0.00;;;;;;;8.89;53.82;102710.16;7356370;19;20010;-63
2022/03/27 06:22:44;;;;;;;0.00;0.00;;;;;;;8.88;54.16;102705.81;7347578;19;20481;-63
2022/03/27 06:25:12;;;;;;;0.00;0.00;;;;;;;8.87;54.08;102693.66;7363500;19;20014;-62
2022/03/27 06:27:37;;;;;;;0.00;0.00;;;;;;;8.88;54.10;102705.81;7353281;19;20010;-63
2022/03/27 06:30:07;;;;;;;0.00;0.00;;;;;;;8.87;53.48;102708.38;7350581;19;20006;-62
2022/03/27 06:32:34;;;;;;;0.00;0.00;;;;;;;8.88;54.36;102716.22;7361827;19;20034;-63
2022/03/27 06:35:00;;;;;;;0.00;0.00;;;;;;;8.88;53.90;102718.84;7356424;19;20006;-63
2022/03/27 06:37:27;;;;;;;0.00;0.00;;;;;;;8.89;54.40;102723.19;7362500;19;20027;-63
2022/03/27 06:39:54;;;;;;;0.00;0.00;;;;;;;8.76;53.92;102698.66;7357173;19;20036;-63
2022/03/27 06:42:20;;;;;;;0.00;0.00;;;;;;;8.91;54.96;102725.81;7361423;19;20682;-63
2022/03/27 06:44:45;;;;;;;0.00;0.00;;;;;;;8.92;54.47;102720.66;7357162;19;20017;-63
2022/03/27 06:47:11;;;;;;;0.00;0.00;;;;;;;8.87;55.58;102717.09;7349999;19;20018;-63
2022/03/27 06:49:36;;;;;;;0.00;0.00;;;;;;;8.96;55.02;102719.81;7352405;19;20021;-62
2022/03/27 06:52:02;;;;;;;0.00;0.00;;;;;;;9.00;55.26;102713.81;7358000;19;20025;-62
2022/03/27 06:54:29;;;;;;;0.00;0.00;;;;;;;9.04;55.32;102710.41;7348984;19;20038;-62
2022/03/27 06:56:55;;;;;;;0.00;0.00;;;;;;;9.08;55.13;102709.63;7358908;19;20585;-63
2022/03/27 06:59:20;;;;;;;0.00;0.00;;;;;;;9.04;56.68;102692.16;7357334;19;20020;-63
2022/03/27 07:04:29;;;;;;;0.00;0.00;;;;;;;9.25;56.92;102711.59;7359667;19;20025;-63
2022/03/27 07:06:55;;;;;;;0.00;0.00;;;;;;;9.29;57.16;102710.78;7331509;19;20014;-63
2022/03/27 07:09:20;;;;;;;0.00;0.00;;;;;;;9.36;57.23;102707.41;7359274;19;20030;-63
2022/03/27 07:11:47;;;;;;;0.00;0.00;;;;;;;9.31;57.19;102691.69;7352948;19;20011;-63
2022/03/27 07:14:12;;;;;;;0.00;0.00;;;;;;;9.45;57.20;102715.38;7354980;19;20065;-63
2022/03/27 07:16:39;;;;;;;0.00;0.00;;;;;;;9.52;57.21;102711.97;7351894;19;20090;-63
2022/03/27 07:19:04;;;;;;;0.00;0.00;;;;;;;9.56;55.69;102710.31;7351109;19;20006;-63
2022/03/27 07:21:30;;;;;;;0.00;0.00;;;;;;;9.62;56.87;102703.41;7350251;19;20819;-62
2022/03/27 07:23:55;;;;;;;0.00;0.00;;;;;;;9.68;56.01;102704.34;7358514;19;20016;-63
2022/03/27 07:26:21;;;;;;;0.00;0.00;;;;;;;9.74;57.35;102702.72;7355762;19;20007;-63
2022/03/27 07:28:47;;;;;;;0.00;0.00;;;;;;;9.79;56.85;102705.41;7348117;19;20006;-63
2022/03/27 07:31:13;;;;;;;0.00;0.00;;;;;;;9.87;56.33;102706.34;7358857;19;20002;-63
2022/03/27 07:33:38;;;;;;;0.00;0.00;;;;;;;9.93;56.10;102703.81;7351319;19;20025;-63
2022/03/27 07:36:04;;;;;;;0.00;0.00;;;;;;;9.96;55.89;102703.84;7360271;19;20859;-63
2022/03/27 07:38:29;;;;;;;0.00;0.00;;;;;;;10.06;56.17;102710.94;7361255;19;20027;-63
2022/03/27 07:40:55;;;;;;;0.00;0.00;;;;;;;10.12;55.27;102704.91;7354650;19;20010;-63
2022/03/27 07:43:21;;;;;;;0.00;0.00;;;;;;;10.21;56.34;102706.75;7354330;19;20011;-63
2022/03/27 07:45:46;;;;;;;0.03;0.03;;;;;;;10.30;56.13;102726.03;7346083;19;20010;-63
2022/03/27 07:48:12;;;;;;;0.00;0.00;;;;;;;10.38;55.96;102710.44;7349197;19;20006;-63
2022/03/27 07:50:37;;;;;;;0.00;0.00;;;;;;;10.37;56.07;102695.63;7356253;19;20010;-61
2022/03/27 07:53:04;;;;;;;0.00;0.00;;;;;;;10.41;56.52;102684.38;7355315;19;20041;-63
2022/03/27 07:55:30;;;;;;;0.00;0.00;;;;;;;10.62;56.77;102709.81;7353862;19;20945;-63
2022/03/27 07:57:56;;;;;;;0.03;0.03;;;;;;;10.65;57.29;102708.13;7356270;19;20007;-63
2022/03/27 08:00:22;;;;;;;0.00;0.00;;;;;;;10.74;57.97;102706.44;7343819;19;20010;-63
2022/03/27 08:02:47;;;;;;;0.00;0.00;;;;;;;10.86;57.77;102702.19;7356334;19;20034;-64
2022/03/27 08:05:13;;;;;;;0.00;0.00;;;;;;;10.98;58.79;102704.03;7354796;19;20382;-63
2022/03/27 08:07:39;;;;;;;0.00;0.00;;;;;;;11.05;58.69;102708.44;7352661;19;20022;-63
2022/03/27 08:10:05;;;;;;;0.10;0.10;;;;;;;11.16;58.10;102701.56;7354975;19;20389;-63
2022/03/27 08:12:31;;;;;;;0.00;0.00;;;;;;;11.17;58.65;102687.59;7342275;19;20019;-63
2022/03/27 08:14:57;;;;;;;0.00;0.00;;;;;;;11.32;58.99;102701.66;7355967;19;20019;-63
2022/03/27 08:17:22;;;;;;;0.00;0.00;;;;;;;11.45;59.29;102708.69;7355815;19;20021;-63
2022/03/27 08:19:49;;;;;;;0.00;0.00;;;;;;;11.57;58.40;102715.75;7349645;19;20010;-63
2022/03/27 08:22:15;;;;;;;0.00;0.00;;;;;;;11.66;58.96;102713.19;7354632;19;20048;-63
2022/03/27 08:24:40;;;;;;;0.00;0.00;;;;;;;11.77;58.77;102710.63;7357119;19;20632;-63
2022/03/27 08:27:07;;;;;;;0.00;0.00;;;;;;;11.89;58.62;102702.84;7343955;19;20102;-63
2022/03/27 08:29:34;;;;;;;0.00;0.00;;;;;;;12.05;58.82;102706.38;7357928;19;20025;-64
2022/03/27 08:32:01;;;;;;;0.10;0.10;;;;;;;12.23;58.40;102705.56;7357766;19;20017;-63
2022/03/27 08:34:28;;;;;;;0.00;0.00;;;;;;;12.44;59.08;102703.00;7350398;19;20014;-63
2022/03/27 08:36:55;;;;;;;0.00;0.00;;;;;;;12.62;58.04;102697.78;7354403;19;20018;-63
2022/03/27 08:39:20;;;;;;;0.00;0.00;;;;;;;12.83;58.17;102694.28;7355291;19;20014;-63
2022/03/27 08:41:48;;;;;;;0.00;0.00;;;;;;;13.07;58.05;102687.25;7355739;19;20011;-63
2022/03/27 08:44:15;;;;;;;0.00;0.00;;;;;;;13.27;57.30;102689.88;7354008;19;20374;-63
2022/03/27 08:46:42;;;;;;;0.00;0.00;;;;;;;13.51;56.88;102689.84;7358096;19;20007;-63
2022/03/27 08:49:11;;;;;;;0.00;0.00;;;;;;;13.77;56.67;102695.84;7342220;19;20037;-62
2022/03/27 08:51:47;;;;;;;0.00;0.00;;;;;;;14.03;56.21;102689.59;7342884;19;21042;-64
2022/03/27 08:54:25;;;;;;;0.00;0.00;;;;;;;14.31;55.65;102692.97;7350622;19;20014;-63
2022/03/27 08:57:09;;;;;;;0.00;0.00;;;;;;;14.56;55.73;102691.06;7356018;19;20018;-63
2022/03/27 08:59:38;;;;;;;0.00;0.00;;;;;;;14.77;55.48;102696.16;7357574;19;20010;-63
2022/03/27 09:02:03;;;;;;;0.03;0.03;;;;;;;14.99;54.65;102698.59;7344305;19;20023;-62
2022/03/27 09:04:31;;;;;;;0.00;0.00;;;;;;;15.21;55.00;102692.25;7354297;19;20074;-63
2022/03/27 09:06:56;;;;;;;0.00;0.00;;;;;;;15.47;54.36;102699.00;7354864;19;20019;-64
2022/03/27 09:09:22;;;;;;;0.00;0.00;;;;;;;15.56;54.32;102675.16;7350332;19;20045;-64
2022/03/27 09:11:47;;;;;;;0.00;0.00;;;;;;;15.91;53.68;102701.09;7354449;19;20019;-63
2022/03/27 09:14:15;;;;;;;0.03;0.03;;;;;;;16.21;53.00;102699.81;7350239;19;20113;-64
2022/03/27 09:16:59;;;;;;;0.00;0.00;;;;;;;16.53;51.82;102694.09;7349014;19;20042;-64
2022/03/27 09:19:35;;;;;;;0.10;0.10;;;;;;;16.79;51.88;102688.41;7353376;19;20348;-64
2022/03/27 09:22:12;;;;;;;0.00;0.00;;;;;;;17.09;51.19;102694.94;7349717;19;20014;-64
2022/03/27 09:24:38;;;;;;;0.00;0.00;;;;;;;17.22;50.36;102682.34;7355625;19;20003;-64
2022/03/27 09:27:05;;;;;;;0.00;0.00;;;;;;;17.54;49.71;102680.88;7351369;19;20045;-64
2022/03/27 09:29:59;;;;;;;0.00;0.00;;;;;;;17.95;49.80;102684.47;7349516;19;20715;-64
2022/03/27 09:32:30;;;;;;;0.00;0.00;;;;;;;18.18;49.69;102687.44;7249931;19;2004287;-64
2022/03/27 09:35:05;;;;;;;0.00;0.00;;;;;;;18.46;48.13;102677.09;7350890;19;20034;-64
2022/03/27 09:37:38;;;;;;;0.00;0.00;;;;;;;18.73;48.33;102669.41;7351075;19;20908;-64
2022/03/27 09:40:06;;;;;;;0.00;0.00;;;;;;;18.95;47.95;102672.34;7341131;19;20009;-63
2022/03/27 09:42:31;;;;;;;0.00;0.00;;;;;;;19.15;47.30;102678.00;7353019;19;20011;-63
2022/03/27 09:45:15;;;;;;;0.08;0.08;;;;;;;19.54;47.20;102680.44;7354335;19;21814;-63
2022/03/27 09:47:46;;;;;;;0.00;0.00;;;;;;;19.76;46.90;102676.28;7360178;19;20011;-64
2022/03/27 09:50:34;;;;;;;0.00;0.00;;;;;;;20.10;46.85;102675.28;7344349;19;20006;-63
2022/03/27 09:53:22;;;;;;;0.00;0.00;;;;;;;20.37;46.25;102671.72;7360391;19;20027;-64
2022/03/27 09:55:56;;;;;;;0.10;0.10;;;;;;;20.57;45.29;102670.25;7360170;19;20374;-64
2022/03/27 09:58:41;;;;;;;0.10;0.10;;;;;;;20.84;45.70;102669.34;7359659;19;20815;-64
2022/03/27 10:01:15;;;;;;;0.10;0.10;;;;;;;20.94;44.73;102672.53;7351538;19;20393;-64
2022/03/27 10:03:57;;;;;;;0.10;0.10;;;;;;;21.29;44.60;102671.28;7354240;19;20479;-64
2022/03/27 10:06:28;;;;;;;0.00;0.00;;;;;;;21.45;43.79;102663.66;7356860;19;20009;-64
2022/03/27 10:08:53;;;;;;;0.00;0.00;;;;;;;21.61;43.76;102661.28;7349828;19;20462;-64
2022/03/27 10:11:22;;;;;;;0.00;0.00;;;;;;;21.86;42.61;102655.88;7363429;19;20030;-64
2022/03/27 10:13:49;;;;;;;0.00;0.00;;;;;;;22.07;42.00;102655.03;7350226;19;20102;-64
2022/03/27 10:16:15;;;;;;;0.00;0.00;;;;;;;22.32;41.31;102660.25;7350202;19;20024;-63
2022/03/27 10:18:41;;;;;;;0.00;0.00;;;;;;;22.43;41.33;102642.03;7356066;19;20014;-64
2022/03/27 10:21:07;;;;;;;0.10;0.10;;;;;;;22.72;40.43;102645.28;7358124;19;20006;-64
2022/03/27 10:23:35;;;;;;;0.00;0.00;;;;;;;22.95;39.83;102650.50;7357994;19;20017;-64
2022/03/27 10:26:03;;;;;;;0.10;0.10;;;;;;;23.24;39.95;102651.00;7351922;19;20010;-64
2022/03/27 10:28:29;;;;;;;0.10;0.10;;;;;;;23.43;39.20;102645.72;7357091;19;20014;-64
2022/03/27 10:30:55;;;;;;;0.00;0.00;;;;;;;23.66;38.27;102642.00;7357175;19;20045;-64
2022/03/27 10:33:25;;;;;;;0.00;0.00;;;;;;;23.90;38.02;102619.50;7362990;19;20466;-64
2022/03/27 10:35:55;;;;;;;0.00;0.00;;;;;;;24.20;38.46;102627.81;7358641;19;20023;-64
2022/03/27 10:38:59;;;;;;;0.03;0.03;;;;;;;24.52;38.34;102626.22;7352364;19;20628;-64
2022/03/27 10:41:35;;;;;;;0.00;0.00;;;;;;;24.75;37.77;102621.50;7254135;19;2004142;-64
2022/03/27 10:44:06;;;;;;;0.00;0.00;;;;;;;24.96;36.82;102623.06;7361454;19;20015;-63
2022/03/27 10:46:31;;;;;;;0.00;0.00;;;;;;;25.05;35.81;102616.38;7343066;19;20814;-64
2022/03/27 10:49:12;;;;;;;0.00;0.00;;;;;;;25.43;37.38;102611.63;7356951;19;20002;-64
2022/03/27 10:51:42;;;;;;;0.10;0.10;;;;;;;25.52;34.89;102621.81;7358530;19;20007;-64
2022/03/27 10:54:10;;;;;;;0.10;0.10;;;;;;;25.71;34.58;102618.13;7354310;19;20477;-64
2022/03/27 10:56:44;;;;;;;0.05;0.05;;;;;;;25.98;35.60;102610.38;7359831;19;20018;-64
2022/03/27 10:59:18;;;;;;;0.05;0.05;;;;;;;26.16;34.35;102617.34;7361928;19;20733;-64
2022/03/27 11:01:48;;;;;;;0.03;0.03;;;;;;;26.20;33.87;102585.88;7358055;19;20811;-64
2022/03/27 11:04:22;;;;;;;0.08;0.08;;;;;;;26.53;33.88;102608.03;7353121;19;20011;-64
2022/03/27 11:06:49;;;;;;;0.00;0.00;;;;;;;26.75;33.01;102614.78;7361444;19;20034;-64
2022/03/27 11:09:34;;;;;;;0.10;0.10;;;;;;;27.08;34.32;102607.38;7343867;19;20521;-63
2022/03/27 11:12:02;;;;;;;0.10;0.10;;;;;;;27.15;31.94;102608.69;7363140;19;20014;-64
2022/03/27 11:14:54;;;;;;;0.00;0.00;;;;;;;27.52;34.28;102609.03;7348533;19;20038;-65
2022/03/27 11:17:43;;;;;;;0.10;0.10;;;;;;;27.70;33.33;102600.78;7353250;19;20103;-64
2022/03/27 11:20:31;;;;;;;0.00;0.00;;;;;;;27.89;33.34;102593.28;7355003;19;20014;-64
2022/03/27 11:22:59;;;;;;;0.10;0.10;;;;;;;27.76;30.82;102576.25;7355983;19;20397;-64
2022/03/27 11:25:37;;;;;;;0.00;0.00;;;;;;;27.95;30.07;102592.88;7356993;19;20369;-64
2022/03/27 11:28:02;;;;;;;0.10;0.10;;;;;;;28.10;30.66;102591.84;7363430;19;21535;-64
2022/03/27 11:30:28;;;;;;;0.10;0.10;;;;;;;28.26;29.82;102586.28;7363045;19;20014;-64
2022/03/27 11:33:30;;;;;;;0.00;0.00;;;;;;;28.69;32.49;102589.63;7355704;19;20039;-64